sensor_id;sensor_type;location;lat;lon;timestamp;temperature;humidity
25532;DHT22;13429;48.816;9.118;2024-02-15T00:00:41;11.10;81.20
25532;DHT22;13429;48.816;9.118;2024-02-15T00:03:10;11.10;81.30
25532;DHT22;13429;48.816;9.118;2024-02-15T00:05:39;11.10;81.30
25532;DHT22;13429;48.816;9.118;2024-02-15T00:08:04;11.10;81.40
25532;DHT22;13429;48.816;9.118;2024-02-15T00:10:31;11.00;81.50
25532;DHT22;13429;48.816;9.118;2024-02-15T00:12:57;10.90;81.60
25532;DHT22;13429;48.816;9.118;2024-02-15T00:15:23;11.00;81.80
25532;DHT22;13429;48.816;9.118;2024-02-15T00:17:48;11.00;81.80
25532;DHT22;13429;48.816;9.118;2024-02-15T00:20:14;11.00;81.90
25532;DHT22;13429;48.816;9.118;2024-02-15T00:22:40;11.10;82.00
25532;DHT22;13429;48.816;9.118;2024-02-15T00:25:08;11.10;81.70
25532;DHT22;13429;48.816;9.118;2024-02-15T00:27:35;11.10;81.60
25532;DHT22;13429;48.816;9.118;2024-02-15T00:30:02;11.20;81.40
25532;DHT22;13429;48.816;9.118;2024-02-15T00:32:27;11.10;81.50
25532;DHT22;13429;48.816;9.118;2024-02-15T00:34:53;11.10;81.40
25532;DHT22;13429;48.816;9.118;2024-02-15T00:37:19;11.10;81.50
25532;DHT22;13429;48.816;9.118;2024-02-15T00:39:45;11.10;81.60
25532;DHT22;13429;48.816;9.118;2024-02-15T00:42:10;11.10;81.30
25532;DHT22;13429;48.816;9.118;2024-02-15T00:44:36;11.10;81.50
25532;DHT22;13429;48.816;9.118;2024-02-15T00:47:02;11.00;81.50
25532;DHT22;13429;48.816;9.118;2024-02-15T00:49:28;11.00;81.60
25532;DHT22;13429;48.816;9.118;2024-02-15T00:51:54;11.00;81.70
25532;DHT22;13429;48.816;9.118;2024-02-15T00:54:19;11.00;81.80
25532;DHT22;13429;48.816;9.118;2024-02-15T00:56:45;11.00;81.60
25532;DHT22;13429;48.816;9.118;2024-02-15T00:59:11;11.00;81.70
25532;DHT22;13429;48.816;9.118;2024-02-15T01:01:36;11.00;81.60
25532;DHT22;13429;48.816;9.118;2024-02-15T01:04:04;11.00;81.60
25532;DHT22;13429;48.816;9.118;2024-02-15T01:06:29;10.90;81.70
25532;DHT22;13429;48.816;9.118;2024-02-15T01:08:55;11.00;81.90
25532;DHT22;13429;48.816;9.118;2024-02-15T01:11:21;10.90;81.80
25532;DHT22;13429;48.816;9.118;2024-02-15T01:13:46;10.90;81.70
25532;DHT22;13429;48.816;9.118;2024-02-15T01:16:12;10.80;81.70
25532;DHT22;13429;48.816;9.118;2024-02-15T01:18:38;10.80;81.90
25532;DHT22;13429;48.816;9.118;2024-02-15T01:21:04;10.80;82.10
25532;DHT22;13429;48.816;9.118;2024-02-15T01:23:29;10.70;82.40
25532;DHT22;13429;48.816;9.118;2024-02-15T01:25:55;10.60;82.50
25532;DHT22;13429;48.816;9.118;2024-02-15T01:28:20;10.60;82.60
25532;DHT22;13429;48.816;9.118;2024-02-15T01:30:47;10.60;82.70
25532;DHT22;13429;48.816;9.118;2024-02-15T01:33:13;10.50;82.80
25532;DHT22;13429;48.816;9.118;2024-02-15T01:35:38;10.40;82.80
25532;DHT22;13429;48.816;9.118;2024-02-15T01:38:05;10.30;83.10
25532;DHT22;13429;48.816;9.118;2024-02-15T01:40:31;10.20;83.10
25532;DHT22;13429;48.816;9.118;2024-02-15T01:42:57;10.10;83.20
25532;DHT22;13429;48.816;9.118;2024-02-15T01:45:24;10.10;83.40
25532;DHT22;13429;48.816;9.118;2024-02-15T01:47:51;10.10;83.70
25532;DHT22;13429;48.816;9.118;2024-02-15T01:50:17;10.10;84.20
25532;DHT22;13429;48.816;9.118;2024-02-15T01:52:45;10.00;83.70
25532;DHT22;13429;48.816;9.118;2024-02-15T01:55:14;10.10;84.00
25532;DHT22;13429;48.816;9.118;2024-02-15T01:57:43;10.10;83.80
25532;DHT22;13429;48.816;9.118;2024-02-15T02:00:10;10.00;83.70
25532;DHT22;13429;48.816;9.118;2024-02-15T02:02:39;9.90;83.80
25532;DHT22;13429;48.816;9.118;2024-02-15T02:05:07;9.90;84.00
25532;DHT22;13429;48.816;9.118;2024-02-15T02:07:33;9.90;84.30
25532;DHT22;13429;48.816;9.118;2024-02-15T02:09:59;9.90;84.10
25532;DHT22;13429;48.816;9.118;2024-02-15T02:12:25;9.80;84.10
25532;DHT22;13429;48.816;9.118;2024-02-15T02:14:55;9.70;84.30
25532;DHT22;13429;48.816;9.118;2024-02-15T02:17:21;9.80;84.50
25532;DHT22;13429;48.816;9.118;2024-02-15T02:19:47;9.70;84.30
25532;DHT22;13429;48.816;9.118;2024-02-15T02:22:16;9.60;85.00
25532;DHT22;13429;48.816;9.118;2024-02-15T02:25:07;9.50;84.80
25532;DHT22;13429;48.816;9.118;2024-02-15T02:27:34;9.40;84.80
25532;DHT22;13429;48.816;9.118;2024-02-15T02:30:00;9.30;84.70
25532;DHT22;13429;48.816;9.118;2024-02-15T02:32:26;9.30;84.70
25532;DHT22;13429;48.816;9.118;2024-02-15T02:34:52;9.30;84.90
25532;DHT22;13429;48.816;9.118;2024-02-15T02:37:23;9.30;85.40
25532;DHT22;13429;48.816;9.118;2024-02-15T02:39:49;9.20;85.40
25532;DHT22;13429;48.816;9.118;2024-02-15T02:42:15;9.20;85.30
25532;DHT22;13429;48.816;9.118;2024-02-15T02:44:41;9.20;86.20
25532;DHT22;13429;48.816;9.118;2024-02-15T02:47:06;9.10;85.20
25532;DHT22;13429;48.816;9.118;2024-02-15T02:49:32;9.10;86.10
25532;DHT22;13429;48.816;9.118;2024-02-15T02:51:58;9.00;85.70
25532;DHT22;13429;48.816;9.118;2024-02-15T02:54:23;8.90;86.10
25532;DHT22;13429;48.816;9.118;2024-02-15T02:56:49;8.90;86.90
25532;DHT22;13429;48.816;9.118;2024-02-15T02:59:15;8.80;86.30
25532;DHT22;13429;48.816;9.118;2024-02-15T03:01:41;8.80;86.10
25532;DHT22;13429;48.816;9.118;2024-02-15T03:04:08;8.60;85.80
25532;DHT22;13429;48.816;9.118;2024-02-15T03:06:34;8.60;86.40
25532;DHT22;13429;48.816;9.118;2024-02-15T03:08:59;8.60;86.20
25532;DHT22;13429;48.816;9.118;2024-02-15T03:11:25;8.60;86.80
25532;DHT22;13429;48.816;9.118;2024-02-15T03:13:50;8.60;86.70
25532;DHT22;13429;48.816;9.118;2024-02-15T03:16:16;8.50;86.80
25532;DHT22;13429;48.816;9.118;2024-02-15T03:18:42;8.50;87.40
25532;DHT22;13429;48.816;9.118;2024-02-15T03:21:08;8.40;86.90
25532;DHT22;13429;48.816;9.118;2024-02-15T03:23:37;8.40;86.50
25532;DHT22;13429;48.816;9.118;2024-02-15T03:26:03;8.50;87.30
25532;DHT22;13429;48.816;9.118;2024-02-15T03:28:31;8.50;87.30
25532;DHT22;13429;48.816;9.118;2024-02-15T03:30:57;8.40;86.80
25532;DHT22;13429;48.816;9.118;2024-02-15T03:33:26;8.40;87.10
25532;DHT22;13429;48.816;9.118;2024-02-15T03:35:54;8.50;87.40
25532;DHT22;13429;48.816;9.118;2024-02-15T03:38:19;8.50;87.20
25532;DHT22;13429;48.816;9.118;2024-02-15T03:40:45;8.40;87.10
25532;DHT22;13429;48.816;9.118;2024-02-15T03:43:11;8.30;87.10
25532;DHT22;13429;48.816;9.118;2024-02-15T03:45:36;8.30;86.90
25532;DHT22;13429;48.816;9.118;2024-02-15T03:48:02;8.30;87.00
25532;DHT22;13429;48.816;9.118;2024-02-15T03:50:30;8.30;87.80
25532;DHT22;13429;48.816;9.118;2024-02-15T03:52:58;8.30;87.30
25532;DHT22;13429;48.816;9.118;2024-02-15T03:55:25;8.30;88.20
25532;DHT22;13429;48.816;9.118;2024-02-15T03:57:50;8.40;88.00
25532;DHT22;13429;48.816;9.118;2024-02-15T04:00:18;8.40;87.70
25532;DHT22;13429;48.816;9.118;2024-02-15T04:02:46;8.40;87.60
25532;DHT22;13429;48.816;9.118;2024-02-15T04:05:14;8.40;87.40
25532;DHT22;13429;48.816;9.118;2024-02-15T04:07:40;8.40;87.30
25532;DHT22;13429;48.816;9.118;2024-02-15T04:10:06;8.60;88.00
25532;DHT22;13429;48.816;9.118;2024-02-15T04:12:33;8.50;87.40
25532;DHT22;13429;48.816;9.118;2024-02-15T04:14:59;8.60;87.50
25532;DHT22;13429;48.816;9.118;2024-02-15T04:17:31;8.60;87.80
25532;DHT22;13429;48.816;9.118;2024-02-15T04:20:00;8.80;87.80
25532;DHT22;13429;48.816;9.118;2024-02-15T04:22:26;8.80;87.70
25532;DHT22;13429;48.816;9.118;2024-02-15T04:24:52;8.90;87.70
25532;DHT22;13429;48.816;9.118;2024-02-15T04:27:17;9.00;87.30
25532;DHT22;13429;48.816;9.118;2024-02-15T04:29:46;9.10;87.10
25532;DHT22;13429;48.816;9.118;2024-02-15T04:32:12;9.00;87.30
25532;DHT22;13429;48.816;9.118;2024-02-15T04:34:39;9.10;87.10
25532;DHT22;13429;48.816;9.118;2024-02-15T04:37:05;9.10;87.10
25532;DHT22;13429;48.816;9.118;2024-02-15T04:39:37;9.20;87.10
25532;DHT22;13429;48.816;9.118;2024-02-15T04:42:03;9.20;86.90
25532;DHT22;13429;48.816;9.118;2024-02-15T04:44:31;9.30;86.80
25532;DHT22;13429;48.816;9.118;2024-02-15T04:47:01;9.40;86.00
25532;DHT22;13429;48.816;9.118;2024-02-15T04:49:27;9.40;86.00
25532;DHT22;13429;48.816;9.118;2024-02-15T04:51:54;9.40;85.90
25532;DHT22;13429;48.816;9.118;2024-02-15T04:54:20;9.40;85.90
25532;DHT22;13429;48.816;9.118;2024-02-15T04:56:46;9.40;85.90
25532;DHT22;13429;48.816;9.118;2024-02-15T04:59:11;9.40;85.90
25532;DHT22;13429;48.816;9.118;2024-02-15T05:01:41;9.50;85.70
25532;DHT22;13429;48.816;9.118;2024-02-15T05:04:11;9.60;85.10
25532;DHT22;13429;48.816;9.118;2024-02-15T05:06:37;9.50;85.40
25532;DHT22;13429;48.816;9.118;2024-02-15T05:09:03;9.60;84.90
25532;DHT22;13429;48.816;9.118;2024-02-15T05:11:40;9.50;85.40
25532;DHT22;13429;48.816;9.118;2024-02-15T05:14:15;9.60;85.20
25532;DHT22;13429;48.816;9.118;2024-02-15T05:16:49;9.60;85.00
25532;DHT22;13429;48.816;9.118;2024-02-15T05:19:17;9.60;85.20
25532;DHT22;13429;48.816;9.118;2024-02-15T05:21:44;9.70;85.10
25532;DHT22;13429;48.816;9.118;2024-02-15T05:24:16;9.70;84.50
25532;DHT22;13429;48.816;9.118;2024-02-15T05:26:43;9.80;84.40
25532;DHT22;13429;48.816;9.118;2024-02-15T05:29:10;9.70;84.40
25532;DHT22;13429;48.816;9.118;2024-02-15T05:31:36;9.70;84.30
25532;DHT22;13429;48.816;9.118;2024-02-15T05:34:05;9.80;84.30
25532;DHT22;13429;48.816;9.118;2024-02-15T05:36:30;9.70;84.30
25532;DHT22;13429;48.816;9.118;2024-02-15T05:38:56;9.70;84.60
25532;DHT22;13429;48.816;9.118;2024-02-15T05:41:23;9.70;84.50
25532;DHT22;13429;48.816;9.118;2024-02-15T05:43:49;9.60;84.60
25532;DHT22;13429;48.816;9.118;2024-02-15T05:46:17;9.60;84.70
25532;DHT22;13429;48.816;9.118;2024-02-15T05:48:43;9.60;84.70
25532;DHT22;13429;48.816;9.118;2024-02-15T05:51:09;9.60;84.70
25532;DHT22;13429;48.816;9.118;2024-02-15T05:53:35;9.60;84.80
25532;DHT22;13429;48.816;9.118;2024-02-15T05:56:08;9.60;84.70
25532;DHT22;13429;48.816;9.118;2024-02-15T05:58:35;9.60;84.50
25532;DHT22;13429;48.816;9.118;2024-02-15T06:01:02;9.60;84.60
25532;DHT22;13429;48.816;9.118;2024-02-15T06:03:31;9.70;84.40
25532;DHT22;13429;48.816;9.118;2024-02-15T06:06:00;9.80;83.70
25532;DHT22;13429;48.816;9.118;2024-02-15T06:08:28;9.80;83.80
25532;DHT22;13429;48.816;9.118;2024-02-15T06:10:57;9.80;83.80
25532;DHT22;13429;48.816;9.118;2024-02-15T06:13:23;9.80;83.70
25532;DHT22;13429;48.816;9.118;2024-02-15T06:15:49;9.80;83.70
25532;DHT22;13429;48.816;9.118;2024-02-15T06:18:19;9.80;83.70
25532;DHT22;13429;48.816;9.118;2024-02-15T06:20:47;9.80;83.50
25532;DHT22;13429;48.816;9.118;2024-02-15T06:23:18;9.70;83.50
25532;DHT22;13429;48.816;9.118;2024-02-15T06:25:47;9.60;83.60
25532;DHT22;13429;48.816;9.118;2024-02-15T06:28:13;9.70;83.60
25532;DHT22;13429;48.816;9.118;2024-02-15T06:30:48;9.60;83.50
25532;DHT22;13429;48.816;9.118;2024-02-15T06:33:32;9.70;83.10
25532;DHT22;13429;48.816;9.118;2024-02-15T06:36:16;9.80;82.80
25532;DHT22;13429;48.816;9.118;2024-02-15T06:39:00;9.70;82.90
25532;DHT22;13429;48.816;9.118;2024-02-15T06:41:44;9.70;82.80
25532;DHT22;13429;48.816;9.118;2024-02-15T06:44:09;9.70;82.80
25532;DHT22;13429;48.816;9.118;2024-02-15T06:46:35;9.80;82.60
25532;DHT22;13429;48.816;9.118;2024-02-15T06:49:01;9.70;82.50
25532;DHT22;13429;48.816;9.118;2024-02-15T06:51:27;9.70;82.50
25532;DHT22;13429;48.816;9.118;2024-02-15T06:53:52;9.60;82.60
25532;DHT22;13429;48.816;9.118;2024-02-15T06:56:21;9.70;82.70
25532;DHT22;13429;48.816;9.118;2024-02-15T06:58:47;9.60;82.70
25532;DHT22;13429;48.816;9.118;2024-02-15T07:01:14;9.70;82.50
25532;DHT22;13429;48.816;9.118;2024-02-15T07:03:44;9.70;82.30
25532;DHT22;13429;48.816;9.118;2024-02-15T07:06:11;9.80;81.90
25532;DHT22;13429;48.816;9.118;2024-02-15T07:08:39;9.80;81.60
25532;DHT22;13429;48.816;9.118;2024-02-15T07:11:07;9.80;81.10
25532;DHT22;13429;48.816;9.118;2024-02-15T07:13:35;9.90;80.90
25532;DHT22;13429;48.816;9.118;2024-02-15T07:16:06;9.90;81.00
25532;DHT22;13429;48.816;9.118;2024-02-15T07:18:32;10.00;80.60
25532;DHT22;13429;48.816;9.118;2024-02-15T07:20:58;10.10;80.70
25532;DHT22;13429;48.816;9.118;2024-02-15T07:23:26;10.20;80.50
25532;DHT22;13429;48.816;9.118;2024-02-15T07:25:52;10.30;80.70
25532;DHT22;13429;48.816;9.118;2024-02-15T07:28:19;10.30;79.80
25532;DHT22;13429;48.816;9.118;2024-02-15T07:30:46;10.40;79.80
25532;DHT22;13429;48.816;9.118;2024-02-15T07:33:14;10.50;79.30
25532;DHT22;13429;48.816;9.118;2024-02-15T07:35:46;10.70;79.20
25532;DHT22;13429;48.816;9.118;2024-02-15T07:38:11;10.80;79.10
25532;DHT22;13429;48.816;9.118;2024-02-15T07:40:37;10.80;78.90
25532;DHT22;13429;48.816;9.118;2024-02-15T07:43:05;11.00;78.40
25532;DHT22;13429;48.816;9.118;2024-02-15T07:45:31;11.20;78.50
25532;DHT22;13429;48.816;9.118;2024-02-15T07:48:01;11.30;78.10
25532;DHT22;13429;48.816;9.118;2024-02-15T07:50:26;11.40;76.90
25532;DHT22;13429;48.816;9.118;2024-02-15T07:52:52;11.50;77.00
25532;DHT22;13429;48.816;9.118;2024-02-15T07:55:18;11.60;77.00
25532;DHT22;13429;48.816;9.118;2024-02-15T07:57:44;11.70;76.50
25532;DHT22;13429;48.816;9.118;2024-02-15T08:00:13;11.70;76.00
25532;DHT22;13429;48.816;9.118;2024-02-15T08:02:45;11.80;76.00
25532;DHT22;13429;48.816;9.118;2024-02-15T08:05:11;11.90;75.80
25532;DHT22;13429;48.816;9.118;2024-02-15T08:07:42;12.00;75.40
25532;DHT22;13429;48.816;9.118;2024-02-15T08:10:08;12.10;75.60
25532;DHT22;13429;48.816;9.118;2024-02-15T08:12:41;12.20;75.00
25532;DHT22;13429;48.816;9.118;2024-02-15T08:15:08;12.20;75.00
25532;DHT22;13429;48.816;9.118;2024-02-15T08:17:41;12.20;74.40
25532;DHT22;13429;48.816;9.118;2024-02-15T08:20:09;12.20;74.70
25532;DHT22;13429;48.816;9.118;2024-02-15T08:22:35;12.20;74.40
25532;DHT22;13429;48.816;9.118;2024-02-15T08:25:10;12.30;74.20
25532;DHT22;13429;48.816;9.118;2024-02-15T08:27:40;12.40;75.00
25532;DHT22;13429;48.816;9.118;2024-02-15T08:30:10;12.60;74.40
25532;DHT22;13429;48.816;9.118;2024-02-15T08:32:37;12.70;74.70
25532;DHT22;13429;48.816;9.118;2024-02-15T08:35:11;12.80;74.00
25532;DHT22;13429;48.816;9.118;2024-02-15T08:37:37;12.80;73.70
25532;DHT22;13429;48.816;9.118;2024-02-15T08:40:05;12.90;73.00
25532;DHT22;13429;48.816;9.118;2024-02-15T08:42:41;12.90;72.90
25532;DHT22;13429;48.816;9.118;2024-02-15T08:45:09;12.90;72.80
25532;DHT22;13429;48.816;9.118;2024-02-15T08:47:39;12.90;72.40
25532;DHT22;13429;48.816;9.118;2024-02-15T08:50:06;12.80;72.40
25532;DHT22;13429;48.816;9.118;2024-02-15T08:52:32;12.80;72.50
25532;DHT22;13429;48.816;9.118;2024-02-15T08:54:58;12.70;72.40
25532;DHT22;13429;48.816;9.118;2024-02-15T08:57:25;12.70;72.50
25532;DHT22;13429;48.816;9.118;2024-02-15T08:59:52;12.60;72.40
25532;DHT22;13429;48.816;9.118;2024-02-15T09:02:21;12.70;71.90
25532;DHT22;13429;48.816;9.118;2024-02-15T09:04:46;12.70;72.50
25532;DHT22;13429;48.816;9.118;2024-02-15T09:07:12;12.70;72.20
25532;DHT22;13429;48.816;9.118;2024-02-15T09:09:38;12.80;72.10
25532;DHT22;13429;48.816;9.118;2024-02-15T09:12:03;12.80;71.60
25532;DHT22;13429;48.816;9.118;2024-02-15T09:14:32;12.90;71.90
25532;DHT22;13429;48.816;9.118;2024-02-15T09:16:59;13.00;71.50
25532;DHT22;13429;48.816;9.118;2024-02-15T09:19:24;13.10;71.30
25532;DHT22;13429;48.816;9.118;2024-02-15T09:21:50;13.20;70.80
25532;DHT22;13429;48.816;9.118;2024-02-15T09:24:15;13.30;70.70
25532;DHT22;13429;48.816;9.118;2024-02-15T09:26:42;13.30;70.20
25532;DHT22;13429;48.816;9.118;2024-02-15T09:29:08;13.30;70.40
25532;DHT22;13429;48.816;9.118;2024-02-15T09:31:33;13.40;70.10
25532;DHT22;13429;48.816;9.118;2024-02-15T09:34:01;13.40;69.40
25532;DHT22;13429;48.816;9.118;2024-02-15T09:36:27;13.50;69.90
25532;DHT22;13429;48.816;9.118;2024-02-15T09:38:54;13.50;69.90
25532;DHT22;13429;48.816;9.118;2024-02-15T09:41:19;13.60;69.60
25532;DHT22;13429;48.816;9.118;2024-02-15T09:43:45;13.50;69.10
25532;DHT22;13429;48.816;9.118;2024-02-15T09:46:12;13.50;69.10
25532;DHT22;13429;48.816;9.118;2024-02-15T09:48:39;13.40;69.20
25532;DHT22;13429;48.816;9.118;2024-02-15T09:51:09;13.60;68.70
25532;DHT22;13429;48.816;9.118;2024-02-15T09:53:37;13.40;68.50
25532;DHT22;13429;48.816;9.118;2024-02-15T09:56:04;13.40;68.40
25532;DHT22;13429;48.816;9.118;2024-02-15T09:58:31;13.30;68.30
25532;DHT22;13429;48.816;9.118;2024-02-15T10:01:04;13.30;68.90
25532;DHT22;13429;48.816;9.118;2024-02-15T10:03:37;13.40;68.50
25532;DHT22;13429;48.816;9.118;2024-02-15T10:06:03;13.50;68.50
25532;DHT22;13429;48.816;9.118;2024-02-15T10:08:32;13.60;68.20
25532;DHT22;13429;48.816;9.118;2024-02-15T10:11:10;13.70;68.20
25532;DHT22;13429;48.816;9.118;2024-02-15T10:13:36;13.70;67.90
25532;DHT22;13429;48.816;9.118;2024-02-15T10:16:20;13.80;67.70
25532;DHT22;13429;48.816;9.118;2024-02-15T10:18:50;13.90;67.40
25532;DHT22;13429;48.816;9.118;2024-02-15T10:21:29;14.00;67.00
25532;DHT22;13429;48.816;9.118;2024-02-15T10:24:06;14.00;67.00
25532;DHT22;13429;48.816;9.118;2024-02-15T10:26:33;14.10;66.60
25532;DHT22;13429;48.816;9.118;2024-02-15T10:29:10;14.10;65.90
25532;DHT22;13429;48.816;9.118;2024-02-15T10:31:40;14.30;65.60
25532;DHT22;13429;48.816;9.118;2024-02-15T10:34:17;14.40;64.80
25532;DHT22;13429;48.816;9.118;2024-02-15T10:36:44;14.40;64.50
25532;DHT22;13429;48.816;9.118;2024-02-15T10:39:17;14.40;63.50
25532;DHT22;13429;48.816;9.118;2024-02-15T10:41:48;14.50;64.50
25532;DHT22;13429;48.816;9.118;2024-02-15T10:44:19;14.60;63.90
25532;DHT22;13429;48.816;9.118;2024-02-15T10:46:47;14.60;63.10
25532;DHT22;13429;48.816;9.118;2024-02-15T10:49:17;14.80;63.40
25532;DHT22;13429;48.816;9.118;2024-02-15T10:51:44;14.70;61.90
25532;DHT22;13429;48.816;9.118;2024-02-15T10:54:12;14.80;62.50
25532;DHT22;13429;48.816;9.118;2024-02-15T10:56:44;14.80;62.20
25532;DHT22;13429;48.816;9.118;2024-02-15T10:59:17;14.80;62.70
25532;DHT22;13429;48.816;9.118;2024-02-15T11:01:46;14.80;63.00
25532;DHT22;13429;48.816;9.118;2024-02-15T11:04:20;14.90;61.90
25532;DHT22;13429;48.816;9.118;2024-02-15T11:06:48;14.90;62.80
25532;DHT22;13429;48.816;9.118;2024-02-15T11:09:16;15.00;62.70
25532;DHT22;13429;48.816;9.118;2024-02-15T11:11:42;14.90;62.30
25532;DHT22;13429;48.816;9.118;2024-02-15T11:14:28;15.10;62.20
25532;DHT22;13429;48.816;9.118;2024-02-15T11:17:00;15.10;61.40
25532;DHT22;13429;48.816;9.118;2024-02-15T11:22:13;15.30;61.40
25532;DHT22;13429;48.816;9.118;2024-02-15T11:24:48;15.30;60.30
25532;DHT22;13429;48.816;9.118;2024-02-15T11:27:27;15.40;60.30
25532;DHT22;13429;48.816;9.118;2024-02-15T11:29:59;15.40;58.60
25532;DHT22;13429;48.816;9.118;2024-02-15T11:32:49;15.40;60.20
25532;DHT22;13429;48.816;9.118;2024-02-15T11:35:26;15.60;60.00
25532;DHT22;13429;48.816;9.118;2024-02-15T11:38:00;15.80;59.20
25532;DHT22;13429;48.816;9.118;2024-02-15T11:43:10;15.80;58.80
25532;DHT22;13429;48.816;9.118;2024-02-15T11:45:36;15.80;58.20
25532;DHT22;13429;48.816;9.118;2024-02-15T11:48:10;15.90;59.10
25532;DHT22;13429;48.816;9.118;2024-02-15T11:50:37;15.90;59.10
25532;DHT22;13429;48.816;9.118;2024-02-15T11:53:07;15.80;58.90
25532;DHT22;13429;48.816;9.118;2024-02-15T11:55:37;15.80;58.60
25532;DHT22;13429;48.816;9.118;2024-02-15T11:58:08;15.80;59.10
25532;DHT22;13429;48.816;9.118;2024-02-15T12:00:34;15.80;59.30
25532;DHT22;13429;48.816;9.118;2024-02-15T12:03:19;15.90;59.30
25532;DHT22;13429;48.816;9.118;2024-02-15T12:06:03;15.90;59.00
25532;DHT22;13429;48.816;9.118;2024-02-15T12:08:49;16.10;59.30
25532;DHT22;13429;48.816;9.118;2024-02-15T12:11:34;16.10;59.20
25532;DHT22;13429;48.816;9.118;2024-02-15T12:14:19;15.90;59.10
25532;DHT22;13429;48.816;9.118;2024-02-15T12:17:05;15.90;59.10
25532;DHT22;13429;48.816;9.118;2024-02-15T12:19:51;16.00;58.80
25532;DHT22;13429;48.816;9.118;2024-02-15T12:22:39;16.10;58.60
25532;DHT22;13429;48.816;9.118;2024-02-15T12:25:16;16.30;58.90
25532;DHT22;13429;48.816;9.118;2024-02-15T12:27:52;16.30;58.40
25532;DHT22;13429;48.816;9.118;2024-02-15T12:30:18;16.60;58.40
25532;DHT22;13429;48.816;9.118;2024-02-15T12:32:49;16.70;57.20
25532;DHT22;13429;48.816;9.118;2024-02-15T12:35:19;16.70;57.10
25532;DHT22;13429;48.816;9.118;2024-02-15T12:38:02;16.90;56.50
25532;DHT22;13429;48.816;9.118;2024-02-15T12:40:34;16.80;56.70
25532;DHT22;13429;48.816;9.118;2024-02-15T12:43:00;16.90;56.70
25532;DHT22;13429;48.816;9.118;2024-02-15T12:45:26;16.90;57.20
25532;DHT22;13429;48.816;9.118;2024-02-15T12:47:54;16.80;56.80
25532;DHT22;13429;48.816;9.118;2024-02-15T12:50:21;16.80;57.20
25532;DHT22;13429;48.816;9.118;2024-02-15T12:52:47;17.00;56.50
25532;DHT22;13429;48.816;9.118;2024-02-15T12:55:15;16.80;56.90
25532;DHT22;13429;48.816;9.118;2024-02-15T12:57:47;16.80;56.50
25532;DHT22;13429;48.816;9.118;2024-02-15T13:00:20;16.90;56.60
25532;DHT22;13429;48.816;9.118;2024-02-15T13:02:48;16.90;56.80
25532;DHT22;13429;48.816;9.118;2024-02-15T13:05:19;17.00;56.60
25532;DHT22;13429;48.816;9.118;2024-02-15T13:07:52;17.00;56.40
25532;DHT22;13429;48.816;9.118;2024-02-15T13:10:18;17.10;56.60
25532;DHT22;13429;48.816;9.118;2024-02-15T13:12:44;17.10;56.20
25532;DHT22;13429;48.816;9.118;2024-02-15T13:15:16;17.10;56.30
25532;DHT22;13429;48.816;9.118;2024-02-15T13:17:47;17.10;55.70
25532;DHT22;13429;48.816;9.118;2024-02-15T13:20:20;17.00;55.50
25532;DHT22;13429;48.816;9.118;2024-02-15T13:22:53;16.80;55.50
25532;DHT22;13429;48.816;9.118;2024-02-15T13:25:19;16.80;55.00
25532;DHT22;13429;48.816;9.118;2024-02-15T13:27:46;16.80;55.30
25532;DHT22;13429;48.816;9.118;2024-02-15T13:30:13;16.80;54.50
25532;DHT22;13429;48.816;9.118;2024-02-15T13:32:39;16.80;54.90
25532;DHT22;13429;48.816;9.118;2024-02-15T13:35:09;16.90;54.90
25532;DHT22;13429;48.816;9.118;2024-02-15T13:37:56;17.10;54.70
25532;DHT22;13429;48.816;9.118;2024-02-15T13:40:25;17.30;55.50
25532;DHT22;13429;48.816;9.118;2024-02-15T13:42:59;17.30;54.30
25532;DHT22;13429;48.816;9.118;2024-02-15T13:45:29;17.30;53.40
25532;DHT22;13429;48.816;9.118;2024-02-15T13:47:58;17.40;54.50
25532;DHT22;13429;48.816;9.118;2024-02-15T13:50:24;17.30;54.20
25532;DHT22;13429;48.816;9.118;2024-02-15T13:52:50;17.30;54.20
25532;DHT22;13429;48.816;9.118;2024-02-15T13:55:19;17.40;54.70
25532;DHT22;13429;48.816;9.118;2024-02-15T13:57:48;17.40;55.00
25532;DHT22;13429;48.816;9.118;2024-02-15T14:00:15;17.40;55.10
25532;DHT22;13429;48.816;9.118;2024-02-15T14:02:51;17.20;55.40
25532;DHT22;13429;48.816;9.118;2024-02-15T14:05:17;17.30;55.40
25532;DHT22;13429;48.816;9.118;2024-02-15T14:07:50;17.20;55.30
25532;DHT22;13429;48.816;9.118;2024-02-15T14:10:17;17.20;55.50
25532;DHT22;13429;48.816;9.118;2024-02-15T14:12:45;17.10;54.00
25532;DHT22;13429;48.816;9.118;2024-02-15T14:15:10;17.00;54.30
25532;DHT22;13429;48.816;9.118;2024-02-15T14:17:37;17.00;54.20
25532;DHT22;13429;48.816;9.118;2024-02-15T14:20:03;17.10;54.90
25532;DHT22;13429;48.816;9.118;2024-02-15T14:22:34;17.20;55.00
25532;DHT22;13429;48.816;9.118;2024-02-15T14:24:59;17.00;54.60
25532;DHT22;13429;48.816;9.118;2024-02-15T14:27:25;16.90;54.80
25532;DHT22;13429;48.816;9.118;2024-02-15T14:29:51;16.90;55.40
25532;DHT22;13429;48.816;9.118;2024-02-15T14:32:35;17.00;54.50
25532;DHT22;13429;48.816;9.118;2024-02-15T14:35:19;17.00;55.10
25532;DHT22;13429;48.816;9.118;2024-02-15T14:37:46;17.10;55.50
25532;DHT22;13429;48.816;9.118;2024-02-15T14:40:12;17.00;55.40
25532;DHT22;13429;48.816;9.118;2024-02-15T14:42:42;17.10;55.50
25532;DHT22;13429;48.816;9.118;2024-02-15T14:45:09;16.90;55.70
25532;DHT22;13429;48.816;9.118;2024-02-15T14:47:36;17.00;55.50
25532;DHT22;13429;48.816;9.118;2024-02-15T14:50:02;17.00;55.40
25532;DHT22;13429;48.816;9.118;2024-02-15T14:52:28;17.00;55.80
25532;DHT22;13429;48.816;9.118;2024-02-15T14:54:53;16.80;55.50
25532;DHT22;13429;48.816;9.118;2024-02-15T14:57:19;16.80;55.80
25532;DHT22;13429;48.816;9.118;2024-02-15T14:59:45;16.80;55.10
25532;DHT22;13429;48.816;9.118;2024-02-15T15:02:11;16.80;55.40
25532;DHT22;13429;48.816;9.118;2024-02-15T15:04:36;16.80;55.50
25532;DHT22;13429;48.816;9.118;2024-02-15T15:07:22;16.80;55.20
25532;DHT22;13429;48.816;9.118;2024-02-15T15:10:06;16.80;56.10
25532;DHT22;13429;48.816;9.118;2024-02-15T15:12:50;16.80;55.90
25532;DHT22;13429;48.816;9.118;2024-02-15T15:15:16;16.70;55.90
25532;DHT22;13429;48.816;9.118;2024-02-15T15:17:44;16.70;56.30
25532;DHT22;13429;48.816;9.118;2024-02-15T15:20:12;16.70;56.30
25532;DHT22;13429;48.816;9.118;2024-02-15T15:22:38;16.60;56.50
25532;DHT22;13429;48.816;9.118;2024-02-15T15:25:04;16.50;56.40
25532;DHT22;13429;48.816;9.118;2024-02-15T15:27:30;16.50;56.80
25532;DHT22;13429;48.816;9.118;2024-02-15T15:29:56;16.40;56.90
25532;DHT22;13429;48.816;9.118;2024-02-15T15:32:22;16.30;56.80
25532;DHT22;13429;48.816;9.118;2024-02-15T15:34:48;16.30;57.60
25532;DHT22;13429;48.816;9.118;2024-02-15T15:37:14;16.30;58.00
25532;DHT22;13429;48.816;9.118;2024-02-15T15:39:41;16.20;58.10
25532;DHT22;13429;48.816;9.118;2024-02-15T15:42:07;16.10;58.20
25532;DHT22;13429;48.816;9.118;2024-02-15T15:44:33;16.10;58.20
25532;DHT22;13429;48.816;9.118;2024-02-15T15:46:59;15.90;58.90
25532;DHT22;13429;48.816;9.118;2024-02-15T15:49:25;15.90;59.00